createdAt,value
2023-03-03T00:01:30.486Z,64.50
2023-03-03T00:03:57.272Z,64.60
2023-03-03T00:06:24.876Z,64.60
2023-03-03T00:08:51.782Z,64.60
2023-03-03T00:11:18.558Z,64.80
2023-03-03T00:13:53.452Z,64.80
2023-03-03T00:16:28.401Z,64.80
2023-03-03T00:18:56.201Z,64.80
2023-03-03T00:21:32.620Z,64.80
2023-03-03T00:24:14.359Z,64.80
2023-03-03T00:26:44.131Z,64.80
2023-03-03T00:29:39.877Z,64.80
2023-03-03T00:32:15.508Z,64.70
2023-03-03T00:34:43.705Z,64.80
2023-03-03T00:37:27.742Z,64.80
2023-03-03T00:40:02.093Z,64.80
2023-03-03T00:42:28.868Z,64.70
2023-03-03T00:45:00.163Z,64.70
2023-03-03T00:47:31.617Z,64.70
2023-03-03T00:50:07.651Z,64.70
2023-03-03T00:52:37.246Z,64.60
2023-03-03T00:55:05.211Z,64.50
2023-03-03T00:57:31.942Z,64.40
2023-03-03T00:59:59.197Z,64.40
2023-03-03T01:02:26.727Z,64.30
2023-03-03T01:04:57.301Z,64.30
2023-03-03T01:07:24.003Z,64.20
2023-03-03T01:09:50.707Z,64.20
2023-03-03T01:12:17.612Z,64.10
2023-03-03T01:14:45.310Z,64.20
2023-03-03T01:17:12.729Z,64.10
2023-03-03T01:19:39.642Z,64.10
2023-03-03T01:22:06.466Z,64.10
2023-03-03T01:24:33.501Z,64.10
2023-03-03T01:27:00.358Z,64.10
2023-03-03T01:29:27.018Z,64.10
2023-03-03T01:31:53.790Z,64.10
2023-03-03T01:34:20.641Z,64.10
2023-03-03T01:36:47.417Z,64.20
2023-03-03T01:39:14.123Z,64.20
2023-03-03T01:41:41.504Z,64.20
2023-03-03T01:44:14.128Z,64.20
2023-03-03T01:46:51.662Z,64.20
2023-03-03T01:49:25.205Z,64.20
2023-03-03T01:52:08.386Z,64.20
2023-03-03T01:54:44.035Z,64.20
2023-03-03T01:57:23.933Z,64.20
2023-03-03T01:59:52.470Z,64.20
2023-03-03T02:02:19.822Z,64.30
2023-03-03T02:04:46.597Z,64.40
2023-03-03T02:07:16.057Z,64.70
2023-03-03T02:09:57.804Z,64.70
2023-03-03T02:12:32.447Z,64.70
2023-03-03T02:14:59.290Z,64.80
2023-03-03T02:17:26.259Z,64.80
2023-03-03T02:20:31.467Z,64.70
2023-03-03T02:23:12.618Z,64.60
2023-03-03T02:25:48.605Z,64.50
2023-03-03T02:28:15.646Z,64.50
2023-03-03T02:30:42.373Z,65.00
2023-03-03T02:33:09.701Z,64.40
2023-03-03T02:35:40.807Z,64.40
2023-03-03T02:38:35.037Z,64.40
2023-03-03T02:41:21.914Z,64.30
2023-03-03T02:43:56.687Z,64.30
2023-03-03T02:46:24.530Z,64.30
2023-03-03T02:48:51.303Z,64.30
2023-03-03T02:51:18.205Z,64.30
2023-03-03T02:53:45.621Z,64.30
2023-03-03T02:56:12.538Z,64.20
2023-03-03T02:58:39.206Z,64.30
2023-03-03T03:01:06.292Z,64.20
2023-03-03T03:03:33.249Z,64.10
2023-03-03T03:06:02.424Z,64.10
2023-03-03T03:08:29.263Z,64.20
2023-03-03T03:10:56.969Z,64.20
2023-03-03T03:13:26.272Z,64.20
2023-03-03T03:15:53.642Z,64.10
2023-03-03T03:18:20.369Z,64.70
2023-03-03T03:20:48.629Z,64.20
2023-03-03T03:23:17.479Z,64.20
2023-03-03T03:25:47.385Z,64.10
2023-03-03T03:28:21.347Z,64.10
2023-03-03T03:30:48.290Z,64.00
2023-03-03T03:33:15.031Z,64.00
2023-03-03T03:35:45.518Z,64.00
2023-03-03T03:38:14.457Z,64.00
2023-03-03T03:40:42.279Z,64.00
2023-03-03T03:43:09.289Z,64.00
2023-03-03T03:45:35.999Z,63.90
2023-03-03T03:48:03.779Z,64.00
2023-03-03T03:50:31.392Z,64.00
2023-03-03T03:52:58.118Z,63.90
2023-03-03T03:55:24.862Z,64.00
2023-03-03T03:57:51.717Z,64.00
2023-03-03T04:00:18.689Z,63.90
2023-03-03T04:02:51.851Z,64.00
2023-03-03T04:05:19.345Z,63.90
2023-03-03T04:07:46.691Z,63.90
2023-03-03T04:10:14.699Z,63.90
2023-03-03T04:12:42.148Z,63.90
2023-03-03T04:15:14.390Z,63.90
2023-03-03T04:17:41.840Z,64.00
2023-03-03T04:20:11.242Z,64.00
2023-03-03T04:22:37.973Z,64.00
2023-03-03T04:25:06.458Z,64.00
2023-03-03T04:27:38.647Z,64.10
2023-03-03T04:30:06.732Z,64.30
2023-03-03T04:32:34.000Z,64.50
2023-03-03T04:35:08.209Z,64.60
2023-03-03T04:37:38.912Z,64.50
2023-03-03T04:40:07.766Z,64.50
2023-03-03T04:42:35.626Z,64.50
2023-03-03T04:45:04.493Z,64.50
2023-03-03T04:47:32.798Z,64.40
2023-03-03T04:50:00.102Z,64.30
2023-03-03T04:52:29.477Z,64.40
2023-03-03T04:54:56.498Z,64.30
2023-03-03T04:57:23.344Z,64.30
2023-03-03T04:59:51.452Z,64.30
2023-03-03T05:02:19.042Z,64.30
2023-03-03T05:04:47.051Z,64.30
2023-03-03T05:07:13.858Z,64.30
2023-03-03T05:09:40.511Z,64.20
2023-03-03T05:12:07.383Z,64.30
2023-03-03T05:14:34.076Z,64.30
2023-03-03T05:17:00.770Z,64.30
2023-03-03T05:19:28.242Z,64.20
2023-03-03T05:21:55.331Z,64.20
2023-03-03T05:24:22.036Z,64.20
2023-03-03T05:26:48.751Z,64.30
2023-03-03T05:29:15.404Z,64.30
2023-03-03T05:31:44.480Z,64.30
2023-03-03T05:34:12.128Z,64.30
2023-03-03T05:36:38.848Z,64.30
2023-03-03T05:39:05.530Z,64.20
2023-03-03T05:41:32.249Z,64.30
2023-03-03T05:43:58.946Z,64.20
2023-03-03T05:46:25.659Z,64.30
2023-03-03T05:48:52.453Z,64.40
2023-03-03T05:51:19.115Z,64.40
2023-03-03T05:53:45.893Z,64.40
2023-03-03T05:56:12.553Z,64.40
2023-03-03T05:58:39.245Z,64.40
2023-03-03T06:01:05.939Z,64.50
2023-03-03T06:03:33.315Z,64.60
2023-03-03T06:06:00.121Z,64.70
2023-03-03T06:08:26.947Z,64.80
2023-03-03T06:10:53.638Z,64.70
2023-03-03T06:13:20.389Z,64.70
2023-03-03T06:15:47.199Z,64.70
2023-03-03T06:18:13.948Z,64.70
2023-03-03T06:20:40.854Z,64.70
2023-03-03T06:23:07.738Z,64.70
2023-03-03T06:25:35.744Z,64.70
2023-03-03T06:28:02.891Z,64.80
2023-03-03T06:30:30.628Z,64.70
2023-03-03T06:32:57.457Z,64.80
2023-03-03T06:35:24.525Z,64.80
2023-03-03T06:37:51.706Z,64.70
2023-03-03T06:40:18.586Z,64.60
2023-03-03T06:42:45.483Z,64.60
2023-03-03T06:45:12.588Z,64.50
2023-03-03T06:47:39.312Z,64.40
2023-03-03T06:50:06.729Z,64.60
2023-03-03T06:52:33.706Z,64.90
2023-03-03T06:55:09.622Z,64.80
2023-03-03T06:57:37.426Z,68.50
2023-03-03T07:00:20.279Z,67.20
2023-03-03T07:02:51.631Z,66.10
2023-03-03T07:05:18.956Z,65.60
2023-03-03T07:07:45.742Z,65.40
2023-03-03T07:10:26.925Z,65.30
2023-03-03T07:12:55.600Z,65.10
2023-03-03T07:15:30.032Z,65.20
2023-03-03T07:17:59.537Z,65.10
2023-03-03T07:20:41.985Z,65.20
2023-03-03T07:23:28.056Z,65.20
2023-03-03T07:25:55.105Z,65.10
2023-03-03T07:28:24.953Z,65.10
2023-03-03T07:30:57.039Z,65.10
2023-03-03T07:33:34.964Z,65.00
2023-03-03T07:36:03.674Z,65.00
2023-03-03T07:38:45.431Z,64.90
2023-03-03T07:41:17.137Z,65.00
2023-03-03T07:44:14.997Z,65.00
2023-03-03T07:46:44.768Z,65.10
2023-03-03T07:49:34.560Z,65.30
2023-03-03T07:52:01.485Z,65.60
2023-03-03T07:54:40.367Z,65.70
2023-03-03T07:57:26.044Z,65.90
2023-03-03T08:00:02.714Z,67.10
2023-03-03T08:02:47.160Z,67.00
2023-03-03T08:05:36.397Z,68.30
2023-03-03T08:08:12.752Z,68.20
2023-03-03T08:10:43.498Z,67.80
2023-03-03T08:13:41.669Z,67.20
2023-03-03T08:16:11.166Z,66.80
2023-03-03T08:18:42.025Z,67.50
2023-03-03T08:21:15.442Z,67.90
2023-03-03T08:23:42.596Z,67.10
2023-03-03T08:26:09.685Z,67.00
2023-03-03T08:28:36.354Z,66.70
2023-03-03T08:31:16.819Z,66.40
2023-03-03T08:33:47.527Z,66.20
2023-03-03T08:36:14.761Z,66.80
2023-03-03T08:38:42.588Z,67.10
2023-03-03T08:41:09.951Z,66.70
2023-03-03T08:43:36.674Z,66.50
2023-03-03T08:46:05.423Z,66.00
2023-03-03T08:48:33.285Z,65.80
2023-03-03T08:51:00.439Z,66.10
2023-03-03T08:53:27.969Z,65.90
2023-03-03T08:55:55.047Z,65.80
2023-03-03T08:58:33.500Z,66.00
2023-03-03T09:01:00.446Z,65.90
2023-03-03T09:03:27.181Z,65.90
2023-03-03T09:05:54.080Z,65.80
2023-03-03T09:08:20.761Z,65.90
2023-03-03T09:10:47.436Z,66.30
2023-03-03T09:13:16.820Z,66.30
2023-03-03T09:15:43.862Z,66.30
2023-03-03T09:18:16.541Z,66.10
2023-03-03T09:20:48.849Z,65.80
2023-03-03T09:23:21.410Z,65.90
2023-03-03T09:25:48.180Z,65.90
2023-03-03T09:28:29.948Z,65.80
2023-03-03T09:31:02.876Z,65.90
2023-03-03T09:33:46.728Z,65.90
2023-03-03T09:36:35.405Z,65.90
2023-03-03T09:39:19.768Z,65.80
2023-03-03T09:41:49.350Z,65.90
2023-03-03T09:44:53.843Z,65.90
2023-03-03T09:47:46.910Z,65.70
2023-03-03T09:50:34.004Z,65.50
2023-03-03T09:53:09.636Z,65.50
2023-03-03T09:55:50.957Z,65.50
2023-03-03T09:58:45.675Z,66.30
2023-03-03T10:01:37.185Z,65.80
2023-03-03T10:04:23.296Z,66.00
2023-03-03T10:07:15.442Z,66.20
2023-03-03T10:10:15.901Z,66.20
2023-03-03T10:13:03.438Z,66.50
2023-03-03T10:16:00.838Z,66.60
2023-03-03T10:18:32.882Z,66.60
2023-03-03T10:21:22.208Z,66.70
2023-03-03T10:24:02.618Z,66.80
2023-03-03T10:27:09.861Z,66.90
2023-03-03T10:29:59.285Z,66.70
2023-03-03T10:32:49.662Z,66.30
2023-03-03T10:35:36.350Z,66.50
2023-03-03T10:38:18.592Z,66.60
2023-03-03T10:41:15.980Z,66.10
2023-03-03T10:43:57.885Z,66.20
2023-03-03T10:46:51.961Z,66.10
2023-03-03T10:50:03.194Z,66.20
2023-03-03T10:52:54.252Z,66.20
2023-03-03T10:55:39.501Z,65.80
2023-03-03T10:58:12.217Z,65.20
2023-03-03T11:03:56.955Z,65.20
2023-03-03T11:07:13.092Z,65.00
2023-03-03T11:10:07.258Z,65.40
2023-03-03T11:13:09.189Z,65.30
2023-03-03T11:16:00.902Z,65.50
2023-03-03T11:18:39.571Z,65.60
2023-03-03T11:21:30.565Z,65.60
2023-03-03T11:23:57.368Z,65.60
2023-03-03T11:26:28.155Z,65.60
2023-03-03T11:29:17.944Z,65.40
2023-03-03T11:31:54.695Z,65.50
2023-03-03T11:34:56.754Z,65.50
2023-03-03T11:37:57.454Z,65.90
2023-03-03T11:40:41.447Z,65.40
2023-03-03T11:43:35.277Z,65.40
2023-03-03T11:46:16.580Z,65.20
2023-03-03T11:49:08.154Z,65.00
2023-03-03T11:51:49.986Z,65.20
2023-03-03T11:54:23.054Z,65.30
2023-03-03T11:56:50.307Z,64.90
2023-03-03T11:59:30.573Z,64.90
2023-03-03T12:02:25.401Z,64.80
2023-03-03T12:05:26.628Z,64.90
2023-03-03T12:08:39.680Z,64.90
2023-03-03T12:11:30.330Z,64.90
2023-03-03T12:13:57.495Z,64.90
2023-03-03T12:17:15.203Z,64.90
2023-03-03T12:20:03.012Z,64.90
2023-03-03T12:22:37.133Z,64.80
2023-03-03T12:25:37.217Z,64.90
2023-03-03T12:28:23.233Z,64.90
2023-03-03T12:31:15.055Z,64.90
2023-03-03T12:34:25.945Z,64.90
2023-03-03T12:37:10.801Z,64.90
2023-03-03T12:39:49.532Z,65.50
2023-03-03T12:42:40.349Z,64.90
2023-03-03T12:45:28.101Z,64.90
2023-03-03T12:48:25.099Z,64.90
2023-03-03T12:50:55.984Z,65.50
2023-03-03T12:53:31.622Z,64.90
2023-03-03T12:56:05.864Z,64.70
2023-03-03T12:59:05.316Z,64.90
2023-03-03T13:01:43.495Z,64.90
2023-03-03T13:04:34.452Z,64.90
2023-03-03T13:07:04.445Z,64.90
2023-03-03T13:09:58.232Z,64.70
2023-03-03T13:12:42.916Z,64.70
2023-03-03T13:15:26.954Z,64.70
2023-03-03T13:18:01.563Z,64.70
2023-03-03T13:20:46.836Z,64.70
2023-03-03T13:23:22.275Z,65.20
2023-03-03T13:25:56.216Z,66.00
2023-03-03T13:28:46.397Z,65.90
2023-03-03T13:31:21.525Z,66.40
2023-03-03T13:33:55.071Z,66.30
2023-03-03T13:36:28.782Z,66.60
2023-03-03T13:39:00.318Z,66.50
2023-03-03T13:41:49.541Z,66.80
2023-03-03T13:44:22.881Z,66.80
2023-03-03T13:47:23.193Z,67.20
2023-03-03T13:50:13.296Z,66.70
2023-03-03T13:53:10.096Z,66.80
2023-03-03T13:55:44.114Z,66.60
2023-03-03T13:58:44.218Z,66.60
2023-03-03T14:01:21.467Z,66.70
2023-03-03T14:04:05.784Z,67.00
2023-03-03T14:06:32.781Z,66.90
2023-03-03T14:09:29.660Z,67.00
2023-03-03T14:12:28.924Z,66.90
2023-03-03T14:15:16.573Z,67.20
2023-03-03T14:18:02.849Z,67.00
2023-03-03T14:20:34.481Z,67.20
2023-03-03T14:23:08.211Z,66.80
2023-03-03T14:26:03.866Z,66.90
2023-03-03T14:28:39.865Z,66.20
2023-03-03T14:31:23.522Z,66.50
2023-03-03T14:34:03.252Z,66.50
2023-03-03T14:36:39.184Z,66.10
2023-03-03T14:39:35.371Z,65.70
2023-03-03T14:42:10.773Z,65.60
2023-03-03T14:44:53.613Z,65.40
2023-03-03T14:47:24.944Z,65.10
2023-03-03T14:49:51.935Z,65.00
2023-03-03T14:52:25.197Z,65.00
2023-03-03T14:54:54.694Z,65.00
2023-03-03T14:57:48.702Z,65.00
2023-03-03T15:00:16.675Z,65.00
2023-03-03T15:02:52.466Z,65.00
2023-03-03T15:05:27.531Z,65.00
2023-03-03T15:07:57.757Z,65.00
2023-03-03T15:10:28.949Z,64.90
2023-03-03T15:12:55.912Z,64.90
2023-03-03T15:15:25.539Z,64.80
2023-03-03T15:17:54.194Z,64.90
2023-03-03T15:20:38.762Z,64.80
2023-03-03T15:23:35.467Z,64.80
2023-03-03T15:26:13.190Z,64.80
2023-03-03T15:29:18.698Z,64.80
2023-03-03T15:32:13.695Z,64.70
2023-03-03T15:34:40.543Z,65.40
2023-03-03T15:37:28.739Z,65.00
2023-03-03T15:40:26.035Z,65.00
2023-03-03T15:43:30.484Z,65.00
2023-03-03T15:46:14.691Z,64.80
2023-03-03T15:49:10.543Z,65.00
2023-03-03T15:52:12.464Z,64.80
2023-03-03T15:55:11.897Z,64.90
2023-03-03T15:58:04.689Z,65.00
2023-03-03T16:00:35.713Z,65.00
2023-03-03T16:03:36.305Z,65.00
2023-03-03T16:06:15.191Z,65.00
2023-03-03T16:09:02.891Z,65.00
2023-03-03T16:12:09.837Z,65.00
2023-03-03T16:14:42.703Z,65.00
2023-03-03T16:17:20.085Z,65.00
2023-03-03T16:20:07.681Z,64.90
2023-03-03T16:22:46.365Z,65.00
2023-03-03T16:25:31.098Z,65.00
2023-03-03T16:28:19.560Z,65.00
2023-03-03T16:30:55.625Z,65.00
2023-03-03T16:33:34.381Z,64.90
2023-03-03T16:36:24.500Z,64.90
2023-03-03T16:39:12.916Z,65.00
2023-03-03T16:42:21.275Z,65.00
2023-03-03T16:44:53.512Z,64.90
2023-03-03T16:47:32.965Z,65.00
2023-03-03T16:50:38.271Z,65.00
2023-03-03T16:53:24.916Z,65.00
2023-03-03T16:56:13.716Z,64.90
2023-03-03T16:58:57.997Z,64.90
2023-03-03T17:01:27.796Z,65.00
2023-03-03T17:04:06.600Z,65.00
2023-03-03T17:06:58.592Z,65.00
2023-03-03T17:09:40.190Z,65.00
2023-03-03T17:12:56.108Z,65.00
2023-03-03T17:15:47.718Z,65.00
2023-03-03T17:18:41.739Z,65.00
2023-03-03T17:21:24.940Z,65.00
2023-03-03T17:24:11.690Z,65.00
2023-03-03T17:26:43.947Z,65.00
2023-03-03T17:29:41.460Z,65.00
2023-03-03T17:32:53.424Z,65.10
2023-03-03T17:35:47.074Z,65.20
2023-03-03T17:38:41.408Z,65.10
2023-03-03T17:41:17.624Z,65.20
2023-03-03T17:43:57.014Z,65.20
2023-03-03T17:46:39.458Z,65.30
2023-03-03T17:49:43.175Z,65.20
2023-03-03T17:52:27.657Z,65.20
2023-03-03T17:55:20.494Z,65.20
2023-03-03T17:58:04.396Z,65.20
2023-03-03T18:01:10.446Z,65.30
2023-03-03T18:03:47.253Z,65.30
2023-03-03T18:06:24.107Z,65.30
2023-03-03T18:09:13.683Z,65.40
2023-03-03T18:12:10.490Z,65.30
2023-03-03T18:14:46.062Z,65.30
2023-03-03T18:17:30.391Z,65.40
2023-03-03T18:20:23.683Z,65.30
2023-03-03T18:22:52.672Z,65.30
2023-03-03T18:25:22.947Z,65.30
2023-03-03T18:28:01.633Z,65.30
2023-03-03T18:30:32.896Z,67.20
2023-03-03T18:33:06.925Z,69.20
2023-03-03T18:35:33.783Z,70.00
2023-03-03T18:38:16.012Z,70.20
2023-03-03T18:40:53.186Z,76.00
2023-03-03T18:43:44.619Z,74.70
2023-03-03T18:46:20.521Z,73.60
2023-03-03T18:48:52.098Z,73.20
2023-03-03T18:51:40.812Z,75.70
2023-03-03T18:54:17.161Z,75.90
2023-03-03T18:56:47.783Z,73.90
2023-03-03T18:59:35.737Z,75.80
2023-03-03T19:02:24.225Z,73.70
2023-03-03T19:04:55.665Z,73.80
2023-03-03T19:07:40.620Z,73.40
2023-03-03T19:10:19.040Z,72.60
2023-03-03T19:12:56.743Z,72.00
2023-03-03T19:15:29.576Z,71.70
2023-03-03T19:17:58.576Z,71.30
2023-03-03T19:20:36.322Z,71.00
2023-03-03T19:23:12.411Z,70.50
2023-03-03T19:25:39.361Z,66.90
2023-03-03T19:28:35.719Z,68.30
2023-03-03T19:31:14.709Z,69.60
2023-03-03T19:33:57.091Z,70.50
2023-03-03T19:36:49.744Z,69.20
2023-03-03T19:39:43.915Z,68.40
2023-03-03T19:42:46.353Z,68.90
2023-03-03T19:45:45.209Z,68.70
2023-03-03T19:48:31.736Z,68.10
2023-03-03T19:51:27.518Z,67.80
2023-03-03T19:54:22.470Z,67.90
2023-03-03T19:56:58.216Z,67.80
2023-03-03T19:59:39.392Z,67.80
2023-03-03T20:02:25.141Z,67.90
2023-03-03T20:04:54.662Z,67.90
2023-03-03T20:07:34.681Z,67.90
2023-03-03T20:10:28.481Z,67.90
2023-03-03T20:13:16.219Z,68.00
2023-03-03T20:16:10.987Z,68.00
2023-03-03T20:19:18.536Z,68.00
2023-03-03T20:22:09.209Z,68.00
2023-03-03T20:24:47.494Z,67.90
2023-03-03T20:27:14.175Z,67.90
2023-03-03T20:29:50.204Z,67.80
2023-03-03T20:32:39.691Z,67.80
2023-03-03T20:35:28.289Z,67.80
2023-03-03T20:38:14.033Z,67.90
2023-03-03T20:41:12.601Z,67.80
2023-03-03T20:44:04.259Z,67.80
2023-03-03T20:46:48.835Z,67.80
2023-03-03T20:49:33.043Z,67.70
2023-03-03T20:52:21.182Z,67.70
2023-03-03T20:55:00.839Z,67.70
2023-03-03T20:57:58.879Z,67.70
2023-03-03T21:00:37.091Z,67.60
2023-03-03T21:03:37.525Z,67.60
2023-03-03T21:06:15.116Z,67.60
2023-03-03T21:08:57.699Z,67.50
2023-03-03T21:11:32.219Z,67.50
2023-03-03T21:14:00.021Z,67.50
2023-03-03T21:16:26.681Z,67.50
2023-03-03T21:19:10.816Z,67.50
2023-03-03T21:21:47.035Z,67.40
2023-03-03T21:24:15.309Z,67.30
2023-03-03T21:26:54.833Z,67.30
2023-03-03T21:29:28.801Z,67.30
2023-03-03T21:31:56.769Z,67.30
2023-03-03T21:34:25.011Z,67.30
2023-03-03T21:36:52.971Z,67.20
2023-03-03T21:39:34.555Z,67.20
2023-03-03T21:42:04.291Z,67.20
2023-03-03T21:44:41.746Z,67.30
2023-03-03T21:47:11.914Z,67.20
2023-03-03T21:49:46.632Z,67.20
2023-03-03T21:52:16.300Z,67.20
2023-03-03T21:54:44.184Z,67.20
2023-03-03T21:57:11.124Z,67.10
2023-03-03T21:59:37.888Z,67.10
2023-03-03T22:02:05.284Z,67.20
2023-03-03T22:04:32.230Z,67.10
2023-03-03T22:06:59.278Z,67.10
2023-03-03T22:09:26.131Z,67.10
2023-03-03T22:11:52.800Z,67.00
2023-03-03T22:14:19.442Z,67.00
2023-03-03T22:16:46.147Z,67.00
2023-03-03T22:19:12.849Z,67.60
2023-03-03T22:21:40.083Z,66.90
2023-03-03T22:24:07.401Z,67.50
2023-03-03T22:26:34.537Z,66.90
2023-03-03T22:29:01.542Z,66.90
2023-03-03T22:31:28.404Z,66.90
2023-03-03T22:33:55.115Z,66.80
2023-03-03T22:36:21.790Z,66.90
2023-03-03T22:38:48.842Z,66.80
2023-03-03T22:41:15.935Z,66.70
2023-03-03T22:43:42.985Z,66.70
2023-03-03T22:46:10.282Z,66.80
2023-03-03T22:48:37.275Z,66.70
2023-03-03T22:51:04.152Z,66.70
2023-03-03T22:53:30.836Z,66.70
2023-03-03T22:55:57.529Z,66.60
2023-03-03T22:58:27.417Z,66.50
2023-03-03T23:00:54.449Z,66.50
2023-03-03T23:03:21.328Z,66.60
2023-03-03T23:05:51.475Z,66.60
2023-03-03T23:08:19.306Z,66.60
2023-03-03T23:10:46.352Z,66.60
2023-03-03T23:13:13.278Z,66.50
2023-03-03T23:15:40.301Z,66.50
2023-03-03T23:18:07.514Z,66.50
2023-03-03T23:20:34.889Z,66.40
2023-03-03T23:23:01.747Z,66.40
2023-03-03T23:25:29.072Z,66.40
2023-03-03T23:27:56.382Z,66.40
2023-03-03T23:30:23.580Z,67.00
2023-03-03T23:32:51.408Z,66.30
2023-03-03T23:35:18.416Z,66.30
2023-03-03T23:37:45.912Z,66.30
2023-03-03T23:40:14.630Z,66.30
2023-03-03T23:42:41.419Z,66.30
2023-03-03T23:45:09.647Z,66.30
2023-03-03T23:47:36.443Z,66.10
2023-03-03T23:50:03.996Z,66.20
2023-03-03T23:52:30.781Z,66.30
2023-03-03T23:54:57.550Z,66.30
2023-03-03T23:57:24.258Z,66.30
2023-03-03T23:59:50.999Z,66.30
